sensor_id;sensor_type;location;lat;lon;timestamp;P1;durP1;ratioP1;P2;durP2;ratioP2
11767;SDS011;5941;57.652;12.514;2023-06-05T00:02:25;639.37;;;610.30;;
11767;SDS011;5941;57.652;12.514;2023-06-05T00:04:53;629.37;;;600.17;;
11767;SDS011;5941;57.652;12.514;2023-06-05T00:07:19;637.03;;;607.77;;
11767;SDS011;5941;57.652;12.514;2023-06-05T00:09:44;628.23;;;599.90;;
11767;SDS011;5941;57.652;12.514;2023-06-05T00:12:10;625.03;;;596.37;;
11767;SDS011;5941;57.652;12.514;2023-06-05T00:14:36;610.47;;;583.03;;
11767;SDS011;5941;57.652;12.514;2023-06-05T00:17:02;636.23;;;607.07;;
11767;SDS011;5941;57.652;12.514;2023-06-05T00:19:28;682.03;;;649.00;;
11767;SDS011;5941;57.652;12.514;2023-06-05T00:21:55;657.63;;;626.07;;
11767;SDS011;5941;57.652;12.514;2023-06-05T00:24:22;654.67;;;623.70;;
11767;SDS011;5941;57.652;12.514;2023-06-05T00:26:48;681.97;;;648.50;;
11767;SDS011;5941;57.652;12.514;2023-06-05T00:29:14;690.60;;;656.90;;
11767;SDS011;5941;57.652;12.514;2023-06-05T00:31:41;677.10;;;644.30;;
11767;SDS011;5941;57.652;12.514;2023-06-05T00:34:07;698.63;;;664.13;;
11767;SDS011;5941;57.652;12.514;2023-06-05T00:36:33;700.33;;;665.73;;
11767;SDS011;5941;57.652;12.514;2023-06-05T00:39:01;725.80;;;688.67;;
11767;SDS011;5941;57.652;12.514;2023-06-05T00:41:28;685.97;;;652.87;;
11767;SDS011;5941;57.652;12.514;2023-06-05T00:43:54;670.17;;;637.87;;
11767;SDS011;5941;57.652;12.514;2023-06-05T00:46:20;666.27;;;634.50;;
11767;SDS011;5941;57.652;12.514;2023-06-05T00:48:46;664.37;;;632.47;;
11767;SDS011;5941;57.652;12.514;2023-06-05T00:51:13;650.03;;;619.43;;
11767;SDS011;5941;57.652;12.514;2023-06-05T00:53:40;650.63;;;619.43;;
11767;SDS011;5941;57.652;12.514;2023-06-05T00:56:07;638.27;;;608.40;;
11767;SDS011;5941;57.652;12.514;2023-06-05T00:58:33;712.60;;;676.43;;
11767;SDS011;5941;57.652;12.514;2023-06-05T01:00:59;710.93;;;675.00;;
11767;SDS011;5941;57.652;12.514;2023-06-05T01:03:26;687.17;;;652.93;;
11767;SDS011;5941;57.652;12.514;2023-06-05T01:05:54;716.83;;;680.93;;
11767;SDS011;5941;57.652;12.514;2023-06-05T01:08:28;698.97;;;663.50;;
11767;SDS011;5941;57.652;12.514;2023-06-05T01:10:53;673.40;;;640.77;;
11767;SDS011;5941;57.652;12.514;2023-06-05T01:13:23;641.23;;;610.87;;
11767;SDS011;5941;57.652;12.514;2023-06-05T01:15:50;619.07;;;590.60;;
11767;SDS011;5941;57.652;12.514;2023-06-05T01:18:17;650.87;;;620.47;;
11767;SDS011;5941;57.652;12.514;2023-06-05T01:20:43;650.53;;;619.87;;
11767;SDS011;5941;57.652;12.514;2023-06-05T01:23:09;608.93;;;581.00;;
11767;SDS011;5941;57.652;12.514;2023-06-05T01:25:36;602.13;;;574.13;;
11767;SDS011;5941;57.652;12.514;2023-06-05T01:28:05;572.53;;;547.20;;
11767;SDS011;5941;57.652;12.514;2023-06-05T01:30:35;602.30;;;574.97;;
11767;SDS011;5941;57.652;12.514;2023-06-05T01:33:09;603.57;;;575.83;;
11767;SDS011;5941;57.652;12.514;2023-06-05T01:35:38;596.17;;;568.73;;
11767;SDS011;5941;57.652;12.514;2023-06-05T01:38:05;595.87;;;568.73;;
11767;SDS011;5941;57.652;12.514;2023-06-05T01:40:31;593.33;;;566.57;;
11767;SDS011;5941;57.652;12.514;2023-06-05T01:42:58;552.93;;;528.73;;
11767;SDS011;5941;57.652;12.514;2023-06-05T01:45:25;554.03;;;530.43;;
11767;SDS011;5941;57.652;12.514;2023-06-05T01:47:51;550.27;;;526.53;;
11767;SDS011;5941;57.652;12.514;2023-06-05T01:50:18;543.50;;;520.30;;
11767;SDS011;5941;57.652;12.514;2023-06-05T01:52:45;538.07;;;515.23;;
11767;SDS011;5941;57.652;12.514;2023-06-05T01:55:15;528.60;;;506.07;;
11767;SDS011;5941;57.652;12.514;2023-06-05T01:57:43;538.97;;;515.90;;
11767;SDS011;5941;57.652;12.514;2023-06-05T02:00:09;534.87;;;512.00;;
11767;SDS011;5941;57.652;12.514;2023-06-05T02:02:40;530.87;;;508.33;;
11767;SDS011;5941;57.652;12.514;2023-06-05T02:05:07;521.53;;;499.73;;
11767;SDS011;5941;57.652;12.514;2023-06-05T02:07:33;519.40;;;497.40;;
11767;SDS011;5941;57.652;12.514;2023-06-05T02:10:02;545.80;;;522.27;;
11767;SDS011;5941;57.652;12.514;2023-06-05T02:12:30;564.43;;;539.90;;
11767;SDS011;5941;57.652;12.514;2023-06-05T02:14:56;553.87;;;529.73;;
11767;SDS011;5941;57.652;12.514;2023-06-05T02:17:22;598.80;;;571.87;;
11767;SDS011;5941;57.652;12.514;2023-06-05T02:19:49;589.00;;;562.43;;
11767;SDS011;5941;57.652;12.514;2023-06-05T02:22:15;627.20;;;598.30;;
11767;SDS011;5941;57.652;12.514;2023-06-05T02:24:41;598.30;;;571.47;;
11767;SDS011;5941;57.652;12.514;2023-06-05T02:27:07;587.53;;;561.20;;
11767;SDS011;5941;57.652;12.514;2023-06-05T02:29:35;640.07;;;610.40;;
11767;SDS011;5941;57.652;12.514;2023-06-05T02:32:01;663.10;;;632.33;;
11767;SDS011;5941;57.652;12.514;2023-06-05T02:34:27;614.00;;;586.10;;
11767;SDS011;5941;57.652;12.514;2023-06-05T02:36:53;614.10;;;586.23;;
11767;SDS011;5941;57.652;12.514;2023-06-05T02:39:20;602.70;;;575.20;;
11767;SDS011;5941;57.652;12.514;2023-06-05T02:41:46;648.53;;;618.00;;
11767;SDS011;5941;57.652;12.514;2023-06-05T02:44:12;629.00;;;599.67;;
11767;SDS011;5941;57.652;12.514;2023-06-05T02:46:38;600.40;;;573.50;;
11767;SDS011;5941;57.652;12.514;2023-06-05T02:49:04;574.50;;;548.93;;
11767;SDS011;5941;57.652;12.514;2023-06-05T02:51:30;575.37;;;549.43;;
11767;SDS011;5941;57.652;12.514;2023-06-05T02:53:56;594.10;;;567.77;;
11767;SDS011;5941;57.652;12.514;2023-06-05T02:56:22;560.57;;;535.93;;
11767;SDS011;5941;57.652;12.514;2023-06-05T02:58:50;571.87;;;546.70;;
11767;SDS011;5941;57.652;12.514;2023-06-05T03:01:16;588.40;;;562.10;;
11767;SDS011;5941;57.652;12.514;2023-06-05T03:03:42;581.47;;;555.07;;
11767;SDS011;5941;57.652;12.514;2023-06-05T03:06:08;653.50;;;622.93;;
11767;SDS011;5941;57.652;12.514;2023-06-05T03:08:34;678.13;;;645.63;;
11767;SDS011;5941;57.652;12.514;2023-06-05T03:11:00;670.90;;;638.10;;
11767;SDS011;5941;57.652;12.514;2023-06-05T03:13:27;666.53;;;634.50;;
11767;SDS011;5941;57.652;12.514;2023-06-05T03:15:53;628.03;;;599.13;;
11767;SDS011;5941;57.652;12.514;2023-06-05T03:18:22;653.33;;;622.37;;
11767;SDS011;5941;57.652;12.514;2023-06-05T03:20:48;639.93;;;610.17;;
11767;SDS011;5941;57.652;12.514;2023-06-05T03:23:20;600.57;;;573.07;;
11767;SDS011;5941;57.652;12.514;2023-06-05T03:25:46;659.27;;;628.53;;
11767;SDS011;5941;57.652;12.514;2023-06-05T03:28:12;665.93;;;634.47;;
11767;SDS011;5941;57.652;12.514;2023-06-05T03:30:38;686.83;;;654.27;;
11767;SDS011;5941;57.652;12.514;2023-06-05T03:33:05;654.23;;;623.73;;
11767;SDS011;5941;57.652;12.514;2023-06-05T03:35:31;1999.90;;;999.90;;
11767;SDS011;5941;57.652;12.514;2023-06-05T03:37:58;671.47;;;639.27;;
11767;SDS011;5941;57.652;12.514;2023-06-05T03:40:23;1999.90;;;999.90;;
11767;SDS011;5941;57.652;12.514;2023-06-05T03:42:49;687.73;;;654.20;;
11767;SDS011;5941;57.652;12.514;2023-06-05T03:45:16;684.83;;;651.53;;
11767;SDS011;5941;57.652;12.514;2023-06-05T03:47:43;678.27;;;645.10;;
11767;SDS011;5941;57.652;12.514;2023-06-05T03:50:11;674.07;;;641.60;;
11767;SDS011;5941;57.652;12.514;2023-06-05T03:52:37;631.27;;;602.23;;
11767;SDS011;5941;57.652;12.514;2023-06-05T03:55:04;620.43;;;592.07;;
11767;SDS011;5941;57.652;12.514;2023-06-05T03:57:32;638.43;;;609.00;;
11767;SDS011;5941;57.652;12.514;2023-06-05T03:59:58;626.20;;;597.97;;
11767;SDS011;5941;57.652;12.514;2023-06-05T04:02:24;637.13;;;607.50;;
11767;SDS011;5941;57.652;12.514;2023-06-05T04:04:50;652.03;;;621.43;;
11767;SDS011;5941;57.652;12.514;2023-06-05T04:07:17;658.03;;;626.90;;
11767;SDS011;5941;57.652;12.514;2023-06-05T04:09:43;659.27;;;628.50;;
11767;SDS011;5941;57.652;12.514;2023-06-05T04:12:09;662.20;;;630.97;;
11767;SDS011;5941;57.652;12.514;2023-06-05T04:14:35;657.17;;;626.30;;
11767;SDS011;5941;57.652;12.514;2023-06-05T04:17:01;632.93;;;603.73;;
11767;SDS011;5941;57.652;12.514;2023-06-05T04:19:28;644.60;;;614.70;;
11767;SDS011;5941;57.652;12.514;2023-06-05T04:21:54;1999.90;;;999.90;;
11767;SDS011;5941;57.652;12.514;2023-06-05T04:24:20;1999.90;;;999.90;;
11767;SDS011;5941;57.652;12.514;2023-06-05T04:26:46;1110.57;;;756.43;;
11767;SDS011;5941;57.652;12.514;2023-06-05T04:29:12;664.23;;;633.47;;
11767;SDS011;5941;57.652;12.514;2023-06-05T04:31:43;666.63;;;634.93;;
11767;SDS011;5941;57.652;12.514;2023-06-05T04:34:10;688.37;;;655.87;;
11767;SDS011;5941;57.652;12.514;2023-06-05T04:36:36;1999.90;;;999.90;;
11767;SDS011;5941;57.652;12.514;2023-06-05T04:39:02;1999.90;;;999.90;;
11767;SDS011;5941;57.652;12.514;2023-06-05T04:41:29;1999.90;;;999.90;;
11767;SDS011;5941;57.652;12.514;2023-06-05T04:43:55;1999.90;;;999.90;;
11767;SDS011;5941;57.652;12.514;2023-06-05T04:46:22;1999.90;;;999.90;;
11767;SDS011;5941;57.652;12.514;2023-06-05T04:48:48;1999.90;;;999.90;;
11767;SDS011;5941;57.652;12.514;2023-06-05T04:51:15;1999.90;;;999.90;;
11767;SDS011;5941;57.652;12.514;2023-06-05T04:53:41;1999.90;;;999.90;;
11767;SDS011;5941;57.652;12.514;2023-06-05T04:56:07;1999.90;;;999.90;;
11767;SDS011;5941;57.652;12.514;2023-06-05T04:58:34;1999.90;;;999.90;;
11767;SDS011;5941;57.652;12.514;2023-06-05T05:01:00;1999.90;;;999.90;;
11767;SDS011;5941;57.652;12.514;2023-06-05T05:03:31;1999.90;;;999.90;;
11767;SDS011;5941;57.652;12.514;2023-06-05T05:05:57;1999.90;;;999.90;;
11767;SDS011;5941;57.652;12.514;2023-06-05T05:08:23;1999.90;;;999.90;;
11767;SDS011;5941;57.652;12.514;2023-06-05T05:10:49;1999.90;;;999.90;;
11767;SDS011;5941;57.652;12.514;2023-06-05T05:13:15;1999.90;;;999.90;;
11767;SDS011;5941;57.652;12.514;2023-06-05T05:15:41;1999.90;;;999.90;;
11767;SDS011;5941;57.652;12.514;2023-06-05T05:18:07;1999.90;;;999.90;;
11767;SDS011;5941;57.652;12.514;2023-06-05T05:20:32;1999.90;;;999.90;;
11767;SDS011;5941;57.652;12.514;2023-06-05T05:22:59;1999.90;;;999.90;;
11767;SDS011;5941;57.652;12.514;2023-06-05T05:25:25;1999.90;;;999.90;;
11767;SDS011;5941;57.652;12.514;2023-06-05T05:27:51;1999.90;;;999.90;;
11767;SDS011;5941;57.652;12.514;2023-06-05T05:30:17;1999.90;;;999.90;;
11767;SDS011;5941;57.652;12.514;2023-06-05T05:32:43;1999.90;;;999.90;;
11767;SDS011;5941;57.652;12.514;2023-06-05T05:35:09;1999.90;;;999.90;;
11767;SDS011;5941;57.652;12.514;2023-06-05T05:37:35;1999.90;;;999.90;;
11767;SDS011;5941;57.652;12.514;2023-06-05T05:40:01;1999.90;;;999.90;;
11767;SDS011;5941;57.652;12.514;2023-06-05T05:42:28;1999.90;;;999.90;;
11767;SDS011;5941;57.652;12.514;2023-06-05T05:44:54;1999.90;;;999.90;;
11767;SDS011;5941;57.652;12.514;2023-06-05T05:47:20;1999.90;;;999.90;;
11767;SDS011;5941;57.652;12.514;2023-06-05T05:49:46;1999.90;;;999.90;;
11767;SDS011;5941;57.652;12.514;2023-06-05T05:52:12;1999.90;;;999.90;;
11767;SDS011;5941;57.652;12.514;2023-06-05T05:54:38;1999.90;;;999.90;;
11767;SDS011;5941;57.652;12.514;2023-06-05T05:57:04;1999.90;;;999.90;;
11767;SDS011;5941;57.652;12.514;2023-06-05T05:59:30;1999.90;;;999.90;;
11767;SDS011;5941;57.652;12.514;2023-06-05T06:01:56;1999.90;;;999.90;;
11767;SDS011;5941;57.652;12.514;2023-06-05T06:04:24;1999.90;;;999.90;;
11767;SDS011;5941;57.652;12.514;2023-06-05T06:06:51;1999.90;;;999.90;;
11767;SDS011;5941;57.652;12.514;2023-06-05T06:09:17;1999.90;;;999.90;;
11767;SDS011;5941;57.652;12.514;2023-06-05T06:11:43;1999.90;;;999.90;;
11767;SDS011;5941;57.652;12.514;2023-06-05T06:14:10;1999.90;;;999.90;;
11767;SDS011;5941;57.652;12.514;2023-06-05T06:16:36;1999.90;;;999.90;;
11767;SDS011;5941;57.652;12.514;2023-06-05T06:19:02;1999.90;;;999.90;;
11767;SDS011;5941;57.652;12.514;2023-06-05T06:21:29;1999.90;;;999.90;;
11767;SDS011;5941;57.652;12.514;2023-06-05T06:23:55;1999.90;;;999.90;;
11767;SDS011;5941;57.652;12.514;2023-06-05T06:26:22;1999.90;;;999.90;;
11767;SDS011;5941;57.652;12.514;2023-06-05T06:28:48;1999.90;;;999.90;;
11767;SDS011;5941;57.652;12.514;2023-06-05T06:31:14;1999.90;;;999.90;;
11767;SDS011;5941;57.652;12.514;2023-06-05T06:33:40;1999.90;;;999.90;;
11767;SDS011;5941;57.652;12.514;2023-06-05T06:36:06;1999.90;;;999.90;;
11767;SDS011;5941;57.652;12.514;2023-06-05T06:38:32;1999.90;;;999.90;;
11767;SDS011;5941;57.652;12.514;2023-06-05T06:40:58;1999.90;;;999.90;;
11767;SDS011;5941;57.652;12.514;2023-06-05T06:43:24;1999.90;;;999.90;;
11767;SDS011;5941;57.652;12.514;2023-06-05T06:45:52;1999.90;;;999.90;;
11767;SDS011;5941;57.652;12.514;2023-06-05T06:48:18;1999.90;;;999.90;;
11767;SDS011;5941;57.652;12.514;2023-06-05T06:50:45;1999.90;;;999.90;;
11767;SDS011;5941;57.652;12.514;2023-06-05T06:53:11;887.17;;;833.10;;
11767;SDS011;5941;57.652;12.514;2023-06-05T06:55:36;1999.90;;;999.90;;
11767;SDS011;5941;57.652;12.514;2023-06-05T06:58:03;1999.90;;;999.90;;
11767;SDS011;5941;57.652;12.514;2023-06-05T07:00:30;1999.90;;;999.90;;
11767;SDS011;5941;57.652;12.514;2023-06-05T07:02:56;1999.90;;;999.90;;
11767;SDS011;5941;57.652;12.514;2023-06-05T07:05:22;900.93;;;844.63;;
11767;SDS011;5941;57.652;12.514;2023-06-05T07:07:48;877.90;;;824.87;;
11767;SDS011;5941;57.652;12.514;2023-06-05T07:10:14;856.13;;;805.57;;
11767;SDS011;5941;57.652;12.514;2023-06-05T07:12:40;856.20;;;805.23;;
11767;SDS011;5941;57.652;12.514;2023-06-05T07:15:06;852.03;;;801.90;;
11767;SDS011;5941;57.652;12.514;2023-06-05T07:17:32;844.27;;;794.47;;
11767;SDS011;5941;57.652;12.514;2023-06-05T07:19:58;855.27;;;804.83;;
11767;SDS011;5941;57.652;12.514;2023-06-05T07:22:25;852.40;;;801.97;;
11767;SDS011;5941;57.652;12.514;2023-06-05T07:24:53;806.97;;;761.57;;
11767;SDS011;5941;57.652;12.514;2023-06-05T07:27:19;863.73;;;812.27;;
11767;SDS011;5941;57.652;12.514;2023-06-05T07:29:46;824.47;;;777.33;;
11767;SDS011;5941;57.652;12.514;2023-06-05T07:32:12;834.23;;;785.60;;
11767;SDS011;5941;57.652;12.514;2023-06-05T07:34:38;837.03;;;787.80;;
11767;SDS011;5941;57.652;12.514;2023-06-05T07:37:04;786.03;;;740.93;;
11767;SDS011;5941;57.652;12.514;2023-06-05T07:39:32;796.87;;;752.73;;
11767;SDS011;5941;57.652;12.514;2023-06-05T07:41:58;786.90;;;742.63;;
11767;SDS011;5941;57.652;12.514;2023-06-05T07:44:24;799.60;;;753.80;;
11767;SDS011;5941;57.652;12.514;2023-06-05T07:46:51;824.17;;;775.70;;
11767;SDS011;5941;57.652;12.514;2023-06-05T07:49:17;902.50;;;844.43;;
11767;SDS011;5941;57.652;12.514;2023-06-05T07:51:44;825.37;;;776.50;;
11767;SDS011;5941;57.652;12.514;2023-06-05T07:54:12;719.30;;;677.43;;
11767;SDS011;5941;57.652;12.514;2023-06-05T07:56:38;895.57;;;838.80;;
11767;SDS011;5941;57.652;12.514;2023-06-05T07:59:05;902.77;;;845.50;;
11767;SDS011;5941;57.652;12.514;2023-06-05T08:01:32;889.83;;;832.73;;
11767;SDS011;5941;57.652;12.514;2023-06-05T08:04:01;900.30;;;843.43;;
11767;SDS011;5941;57.652;12.514;2023-06-05T08:06:28;779.27;;;736.03;;
11767;SDS011;5941;57.652;12.514;2023-06-05T08:08:54;778.43;;;735.07;;
11767;SDS011;5941;57.652;12.514;2023-06-05T08:11:20;667.60;;;634.77;;
11767;SDS011;5941;57.652;12.514;2023-06-05T08:13:46;774.13;;;731.10;;
11767;SDS011;5941;57.652;12.514;2023-06-05T08:16:12;672.33;;;639.13;;
11767;SDS011;5941;57.652;12.514;2023-06-05T08:18:40;755.17;;;713.07;;
11767;SDS011;5941;57.652;12.514;2023-06-05T08:21:06;375.37;;;360.53;;
11767;SDS011;5941;57.652;12.514;2023-06-05T08:23:32;531.27;;;508.27;;
11767;SDS011;5941;57.652;12.514;2023-06-05T08:25:58;524.00;;;500.37;;
11767;SDS011;5941;57.652;12.514;2023-06-05T08:28:24;692.13;;;655.63;;
11767;SDS011;5941;57.652;12.514;2023-06-05T08:30:50;461.43;;;441.33;;
11767;SDS011;5941;57.652;12.514;2023-06-05T08:33:17;568.60;;;541.97;;
11767;SDS011;5941;57.652;12.514;2023-06-05T08:35:43;359.80;;;345.38;;
11767;SDS011;5941;57.652;12.514;2023-06-05T08:38:09;659.65;;;625.40;;
11767;SDS011;5941;57.652;12.514;2023-06-05T08:40:34;609.83;;;580.70;;
11767;SDS011;5941;57.652;12.514;2023-06-05T08:43:01;308.67;;;296.77;;
11767;SDS011;5941;57.652;12.514;2023-06-05T08:45:27;775.88;;;730.35;;
11767;SDS011;5941;57.652;12.514;2023-06-05T08:47:54;424.25;;;406.70;;
11767;SDS011;5941;57.652;12.514;2023-06-05T08:50:20;618.08;;;588.53;;
11767;SDS011;5941;57.652;12.514;2023-06-05T08:52:46;511.73;;;488.42;;
11767;SDS011;5941;57.652;12.514;2023-06-05T08:55:14;269.93;;;259.77;;
11767;SDS011;5941;57.652;12.514;2023-06-05T08:57:41;135.87;;;130.67;;
11767;SDS011;5941;57.652;12.514;2023-06-05T09:00:07;143.15;;;137.80;;
11767;SDS011;5941;57.652;12.514;2023-06-05T09:02:39;122.18;;;117.65;;
11767;SDS011;5941;57.652;12.514;2023-06-05T09:05:08;104.00;;;100.05;;
11767;SDS011;5941;57.652;12.514;2023-06-05T09:07:34;70.63;;;67.93;;
11767;SDS011;5941;57.652;12.514;2023-06-05T09:10:02;83.57;;;80.40;;
11767;SDS011;5941;57.652;12.514;2023-06-05T09:12:28;116.82;;;112.55;;
11767;SDS011;5941;57.652;12.514;2023-06-05T09:14:53;95.53;;;92.00;;
11767;SDS011;5941;57.652;12.514;2023-06-05T09:17:20;111.45;;;107.22;;
11767;SDS011;5941;57.652;12.514;2023-06-05T09:19:47;350.70;;;336.15;;
11767;SDS011;5941;57.652;12.514;2023-06-05T09:22:15;126.85;;;122.10;;
11767;SDS011;5941;57.652;12.514;2023-06-05T09:24:41;91.22;;;87.72;;
11767;SDS011;5941;57.652;12.514;2023-06-05T09:27:11;127.93;;;122.93;;
11767;SDS011;5941;57.652;12.514;2023-06-05T09:29:42;120.75;;;116.22;;
11767;SDS011;5941;57.652;12.514;2023-06-05T09:32:16;90.50;;;87.10;;
11767;SDS011;5941;57.652;12.514;2023-06-05T09:34:53;85.22;;;82.13;;
11767;SDS011;5941;57.652;12.514;2023-06-05T09:37:32;87.13;;;83.95;;
11767;SDS011;5941;57.652;12.514;2023-06-05T09:39:58;90.85;;;87.38;;
11767;SDS011;5941;57.652;12.514;2023-06-05T09:42:31;58.55;;;56.20;;
11767;SDS011;5941;57.652;12.514;2023-06-05T09:44:58;80.32;;;77.20;;
11767;SDS011;5941;57.652;12.514;2023-06-05T09:47:24;56.60;;;54.40;;
11767;SDS011;5941;57.652;12.514;2023-06-05T09:49:50;90.22;;;86.78;;
11767;SDS011;5941;57.652;12.514;2023-06-05T09:52:16;107.70;;;103.50;;
11767;SDS011;5941;57.652;12.514;2023-06-05T09:54:43;65.50;;;62.80;;
11767;SDS011;5941;57.652;12.514;2023-06-05T09:57:10;58.55;;;56.15;;
11767;SDS011;5941;57.652;12.514;2023-06-05T09:59:55;68.47;;;65.82;;
11767;SDS011;5941;57.652;12.514;2023-06-05T10:02:23;101.82;;;97.97;;
11767;SDS011;5941;57.652;12.514;2023-06-05T10:07:16;64.13;;;61.63;;
11767;SDS011;5941;57.652;12.514;2023-06-05T10:09:43;78.57;;;75.18;;
11767;SDS011;5941;57.652;12.514;2023-06-05T10:12:09;77.40;;;74.30;;
11767;SDS011;5941;57.652;12.514;2023-06-05T10:14:36;73.25;;;70.35;;
11767;SDS011;5941;57.652;12.514;2023-06-05T10:17:02;119.35;;;114.85;;
11767;SDS011;5941;57.652;12.514;2023-06-05T10:19:29;96.25;;;92.57;;
11767;SDS011;5941;57.652;12.514;2023-06-05T10:21:55;78.18;;;75.20;;
11767;SDS011;5941;57.652;12.514;2023-06-05T10:24:31;68.55;;;65.57;;
11767;SDS011;5941;57.652;12.514;2023-06-05T10:31:58;63.97;;;61.08;;
11767;SDS011;5941;57.652;12.514;2023-06-05T10:39:46;86.88;;;83.22;;
11767;SDS011;5941;57.652;12.514;2023-06-05T10:42:21;128.13;;;123.35;;
11767;SDS011;5941;57.652;12.514;2023-06-05T10:44:47;72.18;;;69.38;;
11767;SDS011;5941;57.652;12.514;2023-06-05T10:48:13;73.45;;;70.43;;
11767;SDS011;5941;57.652;12.514;2023-06-05T10:52:44;58.88;;;56.45;;
11767;SDS011;5941;57.652;12.514;2023-06-05T10:55:10;55.50;;;53.13;;
11767;SDS011;5941;57.652;12.514;2023-06-05T11:00:27;76.93;;;74.00;;
11767;SDS011;5941;57.652;12.514;2023-06-05T11:02:53;69.13;;;66.40;;
11767;SDS011;5941;57.652;12.514;2023-06-05T11:05:19;45.17;;;43.38;;
11767;SDS011;5941;57.652;12.514;2023-06-05T11:07:46;53.00;;;50.75;;
11767;SDS011;5941;57.652;12.514;2023-06-05T11:10:13;65.50;;;62.85;;
11767;SDS011;5941;57.652;12.514;2023-06-05T11:18:25;105.78;;;101.93;;
11767;SDS011;5941;57.652;12.514;2023-06-05T11:20:52;74.80;;;72.05;;
11767;SDS011;5941;57.652;12.514;2023-06-05T11:23:18;41.78;;;40.17;;
11767;SDS011;5941;57.652;12.514;2023-06-05T11:25:46;46.30;;;44.45;;
11767;SDS011;5941;57.652;12.514;2023-06-05T11:28:12;68.90;;;66.22;;
11767;SDS011;5941;57.652;12.514;2023-06-05T11:30:43;51.63;;;49.50;;
11767;SDS011;5941;57.652;12.514;2023-06-05T11:33:09;62.33;;;59.83;;
11767;SDS011;5941;57.652;12.514;2023-06-05T11:35:39;61.13;;;58.65;;
11767;SDS011;5941;57.652;12.514;2023-06-05T11:40:37;64.97;;;62.30;;
11767;SDS011;5941;57.652;12.514;2023-06-05T11:43:04;55.28;;;53.10;;
11767;SDS011;5941;57.652;12.514;2023-06-05T11:45:32;60.95;;;58.55;;
11767;SDS011;5941;57.652;12.514;2023-06-05T11:48:12;60.42;;;58.13;;
11767;SDS011;5941;57.652;12.514;2023-06-05T11:50:38;67.90;;;65.30;;
11767;SDS011;5941;57.652;12.514;2023-06-05T11:53:05;66.53;;;63.83;;
11767;SDS011;5941;57.652;12.514;2023-06-05T11:55:32;60.42;;;58.03;;
11767;SDS011;5941;57.652;12.514;2023-06-05T11:58:09;59.47;;;57.08;;
11767;SDS011;5941;57.652;12.514;2023-06-05T12:00:35;49.70;;;47.70;;
11767;SDS011;5941;57.652;12.514;2023-06-05T12:03:01;82.47;;;79.38;;
11767;SDS011;5941;57.652;12.514;2023-06-05T12:05:28;71.28;;;68.45;;
11767;SDS011;5941;57.652;12.514;2023-06-05T12:07:54;74.70;;;71.80;;
11767;SDS011;5941;57.652;12.514;2023-06-05T12:10:32;73.82;;;70.97;;
11767;SDS011;5941;57.652;12.514;2023-06-05T12:12:58;70.90;;;68.18;;
11767;SDS011;5941;57.652;12.514;2023-06-05T12:15:24;67.05;;;64.43;;
11767;SDS011;5941;57.652;12.514;2023-06-05T12:17:55;70.90;;;68.13;;
11767;SDS011;5941;57.652;12.514;2023-06-05T12:20:21;53.15;;;51.05;;
11767;SDS011;5941;57.652;12.514;2023-06-05T12:22:48;56.08;;;53.80;;
11767;SDS011;5941;57.652;12.514;2023-06-05T12:25:17;49.95;;;48.00;;
11767;SDS011;5941;57.652;12.514;2023-06-05T12:27:43;61.72;;;59.22;;
11767;SDS011;5941;57.652;12.514;2023-06-05T12:30:13;54.08;;;51.67;;
11767;SDS011;5941;57.652;12.514;2023-06-05T12:32:41;71.45;;;68.75;;
11767;SDS011;5941;57.652;12.514;2023-06-05T12:35:17;89.63;;;86.25;;
11767;SDS011;5941;57.652;12.514;2023-06-05T12:37:44;104.55;;;100.65;;
11767;SDS011;5941;57.652;12.514;2023-06-05T12:40:12;58.60;;;56.33;;
11767;SDS011;5941;57.652;12.514;2023-06-05T12:42:38;80.97;;;78.00;;
11767;SDS011;5941;57.652;12.514;2023-06-05T12:45:05;91.72;;;88.35;;
11767;SDS011;5941;57.652;12.514;2023-06-05T12:47:32;78.95;;;75.95;;
11767;SDS011;5941;57.652;12.514;2023-06-05T12:49:58;96.72;;;92.88;;
11767;SDS011;5941;57.652;12.514;2023-06-05T12:52:24;74.38;;;71.53;;
11767;SDS011;5941;57.652;12.514;2023-06-05T12:54:51;99.10;;;95.45;;
11767;SDS011;5941;57.652;12.514;2023-06-05T12:57:17;53.53;;;51.33;;
11767;SDS011;5941;57.652;12.514;2023-06-05T12:59:46;93.35;;;89.93;;
11767;SDS011;5941;57.652;12.514;2023-06-05T13:02:12;81.28;;;78.28;;
11767;SDS011;5941;57.652;12.514;2023-06-05T13:04:39;61.47;;;59.08;;
11767;SDS011;5941;57.652;12.514;2023-06-05T13:07:05;69.50;;;66.82;;
11767;SDS011;5941;57.652;12.514;2023-06-05T13:09:34;89.20;;;85.78;;
11767;SDS011;5941;57.652;12.514;2023-06-05T13:12:00;57.00;;;54.78;;
11767;SDS011;5941;57.652;12.514;2023-06-05T13:14:28;69.70;;;67.07;;
11767;SDS011;5941;57.652;12.514;2023-06-05T13:16:54;46.70;;;44.90;;
11767;SDS011;5941;57.652;12.514;2023-06-05T13:19:21;89.38;;;86.00;;
11767;SDS011;5941;57.652;12.514;2023-06-05T13:21:47;39.50;;;37.95;;
11767;SDS011;5941;57.652;12.514;2023-06-05T13:24:13;68.50;;;65.82;;
11767;SDS011;5941;57.652;12.514;2023-06-05T13:26:39;57.63;;;55.42;;
11767;SDS011;5941;57.652;12.514;2023-06-05T13:29:06;57.00;;;54.75;;
11767;SDS011;5941;57.652;12.514;2023-06-05T13:31:33;64.57;;;62.03;;
11767;SDS011;5941;57.652;12.514;2023-06-05T13:33:59;71.63;;;68.93;;
11767;SDS011;5941;57.652;12.514;2023-06-05T13:36:25;53.13;;;51.03;;
11767;SDS011;5941;57.652;12.514;2023-06-05T13:38:51;79.57;;;76.60;;
11767;SDS011;5941;57.652;12.514;2023-06-05T13:41:17;90.07;;;86.78;;
11767;SDS011;5941;57.652;12.514;2023-06-05T13:43:43;85.60;;;82.35;;
11767;SDS011;5941;57.652;12.514;2023-06-05T13:46:09;83.70;;;80.55;;
11767;SDS011;5941;57.652;12.514;2023-06-05T13:48:35;80.07;;;76.97;;
11767;SDS011;5941;57.652;12.514;2023-06-05T13:51:03;80.57;;;77.45;;
11767;SDS011;5941;57.652;12.514;2023-06-05T13:53:29;77.75;;;74.75;;
11767;SDS011;5941;57.652;12.514;2023-06-05T13:55:59;70.18;;;67.50;;
11767;SDS011;5941;57.652;12.514;2023-06-05T13:58:25;69.40;;;66.72;;
11767;SDS011;5941;57.652;12.514;2023-06-05T14:00:51;67.53;;;64.72;;
11767;SDS011;5941;57.652;12.514;2023-06-05T14:03:17;78.45;;;75.45;;
11767;SDS011;5941;57.652;12.514;2023-06-05T14:05:43;74.55;;;71.75;;
11767;SDS011;5941;57.652;12.514;2023-06-05T14:08:09;87.85;;;84.50;;
11767;SDS011;5941;57.652;12.514;2023-06-05T14:10:35;76.57;;;73.57;;
11767;SDS011;5941;57.652;12.514;2023-06-05T14:13:02;81.93;;;78.82;;
11767;SDS011;5941;57.652;12.514;2023-06-05T14:15:30;45.00;;;43.10;;
11767;SDS011;5941;57.652;12.514;2023-06-05T14:17:56;72.82;;;70.03;;
11767;SDS011;5941;57.652;12.514;2023-06-05T14:20:22;97.35;;;93.68;;
11767;SDS011;5941;57.652;12.514;2023-06-05T14:22:48;74.00;;;71.20;;
11767;SDS011;5941;57.652;12.514;2023-06-05T14:25:14;74.28;;;71.47;;
11767;SDS011;5941;57.652;12.514;2023-06-05T14:27:40;64.50;;;61.90;;